Bismarck, IL (61814)

1:43 AM CDT on August 21, 2017 (GMT -0500)
Danville | | Change Station

Elev 659 ft 40.20 °N, 87.64 °W | Updated 9 seconds ago

Partly Cloudy
Partly Cloudy
76.5 °F
Feels Like 77 °F
N
1.8
Wind Variable Wind from SSE
Gusts 3.8 mph

Today
High -- | Low -- °F
--% Chance of Precip.
Yesterday
High -- | Low -- °F
Precip. -- in
Pressure 30.04 in
Visibility 10.0 miles
Clouds Scattered Clouds 3000 ft
Heat Index 77 °F
Dew Point 72 °F
Humidity 87%
Rainfall 0.00 in
Snow Depth Not available.
6:07 AM 7:38 PM
Waning Crescent, 0% visible
METAR KDNV 210635Z AUTO 19004KT 10SM SCT030 22/21 A3004 RMK AO2 T02190210
Pressure 30.04 in
Visibility 10.0 miles
Clouds Scattered Clouds 3000 ft
Heat Index 77 °F
Dew Point 72 °F
Humidity 87%
Rainfall 0.00 in
Snow Depth Not available.
6:07 AM 7:38 PM
Waning Crescent, 0% visible
METAR KDNV 210635Z AUTO 19004KT 10SM SCT030 22/21 A3004 RMK AO2 T02190210

Get Severe Weather Alerts

Thanks for signing up!

Be on the lookout for a verification email in your inbox.

You'll start receiving the daily forecast at 6 AM.

×

10-Day Weather Forecast

Almanac

Astronomy

Aug. 21, 2017 Rise Set
Actual Time
Civil Twilight
Nautical Twilight
Astronomical Twilight
Moon
Length of Visible Light
Length of Day
Tomorrow will be .
, % of the Moon is Illuminated

Today's Extremes

State Highs State Lows

Community

WunderPhotos

Category 6

Welcome to Category 6. This is the collective home for Weather Underground's featured writeups by Dr. Jeff Masters (right), Bob Henson (left), Chris Burt, and other regular contributors.

Nearby

Air Quality

  Air Quality AQ Index Pollutant
Not available.

Snow Depth

Station Depth Elevation

Earthquake Activity

City Distance Mag. Time & Date
Minimum magnitude displayed is 2.5.

Coastal Water Temperatures

Place Temperature

Stations

Nearby Weather Stations

Station Location Temp. Windchill Dew Point Humidity Wind Precip. Elev Updated Type
                   

Watches & Warnings

There are currently no watches in effect.